Time;durP1;ratioP1;P1;durP2;ratioP2;P2;SDS_P1;SDS_P2;PMS_P1;PMS_P2;Temp;Humidity;BMP_temperature;BMP_pressure;BME280_temperature;BME280_humidity;BME280_pressure;Samples;Min_cycle;Max_cycle;Signal;HPM_P1;HPM_P2
2022/03/13 00:02:04;;;;;;;0.00;0.00;;;;;;;5.52;57.70;98499.75;5070399;28;20266;-57
2022/03/13 00:04:31;;;;;;;0.00;0.00;;;;;;;5.42;56.92;98502.22;5070010;28;20208;-56
2022/03/13 00:06:58;;;;;;;0.00;0.00;;;;;;;5.28;57.65;98511.06;5070518;28;20187;-56
2022/03/13 00:09:26;;;;;;;0.00;0.00;;;;;;;5.24;57.59;98516.63;5070502;28;20264;-56
2022/03/13 00:11:54;;;;;;;0.00;0.00;;;;;;;5.14;58.73;98509.56;5070254;28;20294;-57
2022/03/13 00:14:24;;;;;;;0.00;0.00;;;;;;;5.03;58.03;98512.16;5070117;28;20194;-56
2022/03/13 00:16:51;;;;;;;0.00;0.00;;;;;;;4.90;60.01;98503.69;5070257;28;20187;-56
2022/03/13 00:19:19;;;;;;;0.00;0.00;;;;;;;4.81;60.02;98510.38;5070553;28;20184;-57
2022/03/13 00:21:54;;;;;;;0.00;0.00;;;;;;;4.68;60.97;98508.75;5069999;28;20228;-57
2022/03/13 00:24:22;;;;;;;0.00;0.00;;;;;;;4.56;61.57;98514.84;5069955;28;20579;-56
2022/03/13 00:26:52;;;;;;;0.00;0.00;;;;;;;4.46;63.19;98519.06;5058819;28;20649;-55
2022/03/13 00:29:20;;;;;;;0.00;0.00;;;;;;;4.35;63.44;98518.09;5050031;28;20234;-57
2022/03/13 00:31:48;;;;;;;0.00;0.00;;;;;;;4.28;62.91;98522.88;5050131;28;20207;-56
2022/03/13 00:34:15;;;;;;;0.00;0.00;;;;;;;4.13;62.84;98526.59;5049805;28;20339;-56
2022/03/13 00:36:42;;;;;;;0.00;0.00;;;;;;;4.06;63.98;98518.47;5048199;28;20196;-57
2022/03/13 00:39:09;;;;;;;0.00;0.00;;;;;;;3.89;64.27;98518.88;5050214;28;20191;-56
2022/03/13 00:41:36;;;;;;;0.00;0.00;;;;;;;3.81;65.23;98522.00;5049863;28;20240;-56
2022/03/13 00:44:04;;;;;;;0.00;0.00;;;;;;;3.71;65.86;98523.59;5049369;28;20199;-56
2022/03/13 00:46:33;;;;;;;0.00;0.00;;;;;;;3.65;66.06;98515.34;5050089;28;20691;-57
2022/03/13 00:48:59;;;;;;;0.00;0.00;;;;;;;3.68;65.47;98522.06;5054703;28;20351;-56
2022/03/13 00:51:27;;;;;;;0.00;0.00;;;;;;;3.57;65.69;98517.66;5070062;28;20212;-56
2022/03/13 00:53:53;;;;;;;0.00;0.00;;;;;;;3.56;66.78;98518.59;5069449;28;20191;-56
2022/03/13 00:56:20;;;;;;;0.00;0.00;;;;;;;3.49;66.38;98517.38;5070004;28;20188;-56
2022/03/13 00:58:47;;;;;;;0.00;0.00;;;;;;;3.38;66.90;98524.13;5069981;28;20194;-56
2022/03/13 01:01:14;;;;;;;0.00;0.00;;;;;;;3.30;67.13;98526.41;5069835;28;20272;-56
2022/03/13 01:03:51;;;;;;;0.00;0.00;;;;;;;3.27;67.30;98526.63;5069687;28;20680;-57
2022/03/13 01:06:18;;;;;;;0.00;0.00;;;;;;;3.27;67.92;98520.66;5069437;28;20186;-56
2022/03/13 01:08:48;;;;;;;0.00;0.00;;;;;;;3.24;67.67;98521.66;5069845;28;20561;-56
2022/03/13 01:11:16;;;;;;;0.00;0.00;;;;;;;3.18;67.68;98524.69;5069941;28;20202;-56
2022/03/13 01:13:43;;;;;;;0.00;0.00;;;;;;;3.25;67.66;98521.56;5069431;28;20179;-57
2022/03/13 01:16:12;;;;;;;0.00;0.00;;;;;;;3.22;67.70;98523.53;5069456;28;20187;-58
2022/03/13 01:18:42;;;;;;;0.00;0.00;;;;;;;3.16;67.64;98518.81;5069601;28;20197;-58
2022/03/13 01:21:11;;;;;;;0.00;0.00;;;;;;;3.16;67.21;98524.78;5069936;28;20419;-58
2022/03/13 01:23:38;;;;;;;0.00;0.00;;;;;;;3.12;67.58;98525.94;5067740;28;20210;-58
2022/03/13 01:26:39;;;;;;;0.00;0.00;;;;;;;3.13;66.83;98522.44;5067080;28;20207;-58
2022/03/13 01:29:08;;;;;;;0.00;0.00;;;;;;;3.14;66.28;98518.91;5064386;28;20289;-58
2022/03/13 01:31:37;;;;;;;0.00;0.00;;;;;;;3.19;67.20;98510.84;5069427;28;20383;-58
2022/03/13 01:34:05;;;;;;;0.00;0.00;;;;;;;3.27;65.38;98518.88;5069103;28;20176;-58
2022/03/13 01:36:34;;;;;;;0.00;0.00;;;;;;;3.24;67.02;98509.59;5069524;28;20236;-58
2022/03/13 01:39:02;;;;;;;0.00;0.00;;;;;;;3.18;67.25;98504.06;5069699;28;20264;-56
2022/03/13 01:41:32;;;;;;;0.00;0.00;;;;;;;3.19;65.88;98508.28;5069606;28;20245;-57
2022/03/13 01:44:01;;;;;;;0.00;0.00;;;;;;;3.21;66.75;98507.25;5068589;28;20738;-57
2022/03/13 01:46:28;;;;;;;0.00;0.00;;;;;;;3.27;65.99;98500.81;5069601;28;20184;-57
2022/03/13 01:48:57;;;;;;;0.00;0.00;;;;;;;3.26;67.93;98496.59;5072319;28;20196;-57
2022/03/13 01:51:26;;;;;;;0.00;0.00;;;;;;;3.15;67.61;98504.28;5072804;28;20206;-57
2022/03/13 01:53:55;;;;;;;0.00;0.00;;;;;;;3.09;66.97;98508.09;5072806;28;20266;-57
2022/03/13 01:56:22;;;;;;;0.00;0.00;;;;;;;3.08;68.17;98512.44;5072800;28;20206;-57
2022/03/13 01:58:52;;;;;;;0.00;0.00;;;;;;;2.98;68.25;98513.16;5073005;28;20187;-57
2022/03/13 02:01:19;;;;;;;0.00;0.00;;;;;;;2.93;69.10;98516.06;5072910;28;20210;-57
2022/03/13 02:03:47;;;;;;;0.00;0.00;;;;;;;3.05;67.76;98514.38;5072590;28;20254;-58
2022/03/13 02:06:13;;;;;;;0.00;0.00;;;;;;;3.14;68.42;98515.53;5072324;28;20190;-57
2022/03/13 02:08:41;;;;;;;0.00;0.00;;;;;;;3.03;68.88;98521.41;5072687;28;20202;-57
2022/03/13 02:11:10;;;;;;;0.00;0.00;;;;;;;2.96;69.35;98523.59;5072771;28;20211;-57
2022/03/13 02:13:36;;;;;;;0.00;0.00;;;;;;;3.01;69.94;98521.53;5072486;28;20187;-57
2022/03/13 02:16:06;;;;;;;0.00;0.00;;;;;;;2.94;69.62;98515.94;5072421;28;20202;-56
2022/03/13 02:18:33;;;;;;;0.00;0.00;;;;;;;2.84;70.23;98519.28;5072667;28;20267;-57
2022/03/13 02:21:00;;;;;;;0.00;0.00;;;;;;;2.76;70.93;98512.03;5072224;28;20207;-57
2022/03/13 02:23:29;;;;;;;0.00;0.00;;;;;;;2.68;70.71;98510.00;5072434;28;20189;-57
2022/03/13 02:26:01;;;;;;;0.00;0.00;;;;;;;2.65;71.63;98500.69;5072223;28;20183;-57
2022/03/13 02:28:30;;;;;;;0.00;0.00;;;;;;;2.55;71.79;98499.69;5063674;28;20186;-57
2022/03/13 02:30:59;;;;;;;0.00;0.00;;;;;;;2.49;71.52;98500.91;5071794;28;20742;-57
2022/03/13 02:33:26;;;;;;;0.00;0.00;;;;;;;2.43;71.56;98497.94;5072132;28;20178;-57
2022/03/13 02:35:55;;;;;;;0.00;0.00;;;;;;;2.34;72.02;98491.63;5071888;28;20220;-57
2022/03/13 02:38:22;;;;;;;0.00;0.00;;;;;;;2.29;72.49;98486.81;5072286;28;20179;-57
2022/03/13 02:40:51;;;;;;;0.00;0.00;;;;;;;2.24;73.06;98494.00;5072314;28;20216;-57
2022/03/13 02:43:18;;;;;;;0.00;0.00;;;;;;;2.37;73.07;98486.28;5071654;28;20238;-57
2022/03/13 02:45:45;;;;;;;0.00;0.00;;;;;;;2.45;72.79;98484.00;5071473;28;20215;-57
2022/03/13 02:48:16;;;;;;;0.00;0.00;;;;;;;2.41;72.94;98485.16;5072112;28;20261;-57
2022/03/13 02:50:43;;;;;;;0.00;0.00;;;;;;;2.57;72.42;98477.22;5071809;28;20221;-57
2022/03/13 02:53:10;;;;;;;0.00;0.00;;;;;;;2.54;71.95;98481.75;5071819;28;20256;-57
2022/03/13 02:55:37;;;;;;;0.00;0.00;;;;;;;2.43;72.18;98474.75;5071642;28;20675;-57
2022/03/13 02:58:06;;;;;;;0.00;0.00;;;;;;;2.56;72.17;98474.75;5071367;28;20211;-57
2022/03/13 03:00:45;;;;;;;0.00;0.00;;;;;;;2.57;71.45;98474.66;5071878;28;20771;-57
2022/03/13 03:03:17;;;;;;;0.00;0.00;;;;;;;2.52;72.13;98487.03;5071588;28;20682;-57
2022/03/13 03:05:43;;;;;;;0.00;0.00;;;;;;;2.46;72.25;98488.25;5071185;28;20264;-57
2022/03/13 03:08:11;;;;;;;0.00;0.00;;;;;;;2.35;72.00;98483.81;5071743;28;20293;-57
2022/03/13 03:10:39;;;;;;;0.00;0.00;;;;;;;2.43;72.56;98483.28;5071309;28;20615;-57
2022/03/13 03:13:09;;;;;;;0.00;0.00;;;;;;;2.40;73.84;98477.53;5071121;28;20186;-57
2022/03/13 03:15:36;;;;;;;0.00;0.00;;;;;;;2.36;73.19;98482.06;5071442;28;20193;-57
2022/03/13 03:18:04;;;;;;;0.00;0.00;;;;;;;2.36;73.99;98482.88;5071476;28;20216;-57
2022/03/13 03:20:31;;;;;;;0.00;0.00;;;;;;;2.33;74.15;98485.66;5071258;28;20268;-57
2022/03/13 03:22:58;;;;;;;0.00;0.00;;;;;;;2.36;73.60;98474.31;5070723;28;20252;-57
2022/03/13 03:25:26;;;;;;;0.00;0.00;;;;;;;2.45;73.43;98475.47;5070894;28;20276;-57
2022/03/13 03:27:53;;;;;;;0.00;0.00;;;;;;;2.39;73.99;98476.69;5069614;28;20191;-57
2022/03/13 03:30:23;;;;;;;0.00;0.00;;;;;;;2.35;72.68;98475.25;5050278;28;20218;-57
2022/03/13 03:32:52;;;;;;;0.00;0.00;;;;;;;2.31;72.95;98474.66;5051015;28;20187;-57
2022/03/13 03:35:20;;;;;;;0.00;0.00;;;;;;;2.30;73.58;98482.47;5050445;28;20324;-57
2022/03/13 03:37:48;;;;;;;0.00;0.00;;;;;;;2.21;73.40;98477.00;5051246;28;20183;-57
2022/03/13 03:40:15;;;;;;;0.00;0.00;;;;;;;2.18;74.00;98481.53;5051178;28;20493;-57
2022/03/13 03:42:42;;;;;;;0.00;0.00;;;;;;;2.33;73.86;98474.53;5050600;28;20198;-57
2022/03/13 03:45:10;;;;;;;0.00;0.00;;;;;;;2.26;73.69;98483.59;5050556;28;20834;-57
2022/03/13 03:47:38;;;;;;;0.00;0.00;;;;;;;2.28;74.23;98481.72;5050799;28;20195;-57
2022/03/13 03:50:07;;;;;;;0.00;0.00;;;;;;;2.26;74.07;98478.44;5064232;28;20217;-57
2022/03/13 03:52:33;;;;;;;0.00;0.00;;;;;;;2.24;74.01;98481.13;5070715;28;20183;-57
2022/03/13 03:55:00;;;;;;;0.00;0.00;;;;;;;2.22;73.67;98482.97;5070480;28;20196;-58
2022/03/13 03:57:27;;;;;;;0.00;0.00;;;;;;;2.17;74.04;98479.88;5070776;28;20183;-58
2022/03/13 03:59:54;;;;;;;0.00;0.00;;;;;;;2.12;74.19;98487.88;5070522;28;20189;-58
2022/03/13 04:02:21;;;;;;;0.00;0.00;;;;;;;2.09;74.25;98489.84;5070162;28;20255;-58
2022/03/13 04:04:49;;;;;;;0.00;0.00;;;;;;;2.11;75.08;98488.00;5069950;28;20248;-58
2022/03/13 04:07:17;;;;;;;0.00;0.00;;;;;;;2.03;75.37;98491.91;5070680;28;20195;-57
2022/03/13 04:09:43;;;;;;;0.00;0.00;;;;;;;2.01;75.68;98492.94;5070508;28;20190;-57
2022/03/13 04:12:11;;;;;;;0.00;0.00;;;;;;;2.02;75.66;98502.31;5069610;28;20214;-57
2022/03/13 04:14:38;;;;;;;0.00;0.00;;;;;;;2.03;75.46;98503.97;5069925;28;20183;-58
2022/03/13 04:17:05;;;;;;;0.00;0.00;;;;;;;2.00;74.93;98502.41;5068903;28;20605;-58
2022/03/13 04:19:33;;;;;;;0.00;0.00;;;;;;;2.06;74.98;98508.91;5070424;28;20186;-57
2022/03/13 04:22:02;;;;;;;0.00;0.00;;;;;;;2.01;74.82;98506.63;5070039;28;20228;-58
2022/03/13 04:24:31;;;;;;;0.00;0.00;;;;;;;1.96;75.05;98510.44;5069818;28;20197;-57
2022/03/13 04:26:58;;;;;;;0.00;0.00;;;;;;;1.94;75.64;98514.84;5069920;28;20189;-57
2022/03/13 04:29:25;;;;;;;0.00;0.00;;;;;;;1.90;75.95;98514.22;5066911;28;20183;-58
2022/03/13 04:31:53;;;;;;;0.00;0.00;;;;;;;1.90;76.27;98520.19;5052692;28;20586;-58
2022/03/13 04:34:21;;;;;;;0.00;0.00;;;;;;;1.90;76.73;98524.50;5049633;28;20190;-57
2022/03/13 04:36:48;;;;;;;0.00;0.00;;;;;;;1.83;76.94;98518.94;5050154;28;20190;-58
2022/03/13 04:39:16;;;;;;;0.00;0.00;;;;;;;1.83;76.85;98515.53;5049813;28;20179;-58
2022/03/13 04:41:43;;;;;;;0.00;0.00;;;;;;;1.80;76.91;98518.28;5049702;28;20239;-58
2022/03/13 04:44:14;;;;;;;0.00;0.00;;;;;;;1.84;76.97;98514.59;5049130;28;20301;-58
2022/03/13 04:46:42;;;;;;;0.00;0.00;;;;;;;1.85;76.65;98513.69;5050121;28;20229;-58
2022/03/13 04:49:09;;;;;;;0.00;0.00;;;;;;;1.79;76.84;98511.50;5056008;28;20262;-57
2022/03/13 04:51:40;;;;;;;0.00;0.00;;;;;;;1.75;76.87;98516.03;5066372;28;20211;-57
2022/03/13 04:54:08;;;;;;;0.00;0.00;;;;;;;1.76;77.86;98509.97;5058453;28;20194;-58
2022/03/13 04:56:39;;;;;;;0.00;0.00;;;;;;;1.72;78.02;98511.88;5061551;28;20252;-59
2022/03/13 04:59:07;;;;;;;0.00;0.00;;;;;;;1.72;78.61;98513.66;5057757;28;20189;-58
2022/03/13 05:01:34;;;;;;;0.00;0.00;;;;;;;1.68;79.03;98515.56;5057524;28;20314;-59
2022/03/13 05:04:00;;;;;;;0.00;0.00;;;;;;;1.66;78.43;98512.28;5058522;28;20266;-59
2022/03/13 05:06:28;;;;;;;0.00;0.00;;;;;;;1.84;78.48;98519.75;5057898;28;20199;-57
2022/03/13 05:08:56;;;;;;;0.00;0.00;;;;;;;1.81;78.53;98523.34;5061127;28;20191;-58
2022/03/13 05:11:23;;;;;;;0.00;0.00;;;;;;;1.84;77.83;98535.19;5062916;28;20309;-58
2022/03/13 05:13:51;;;;;;;0.00;0.00;;;;;;;1.86;78.05;98536.75;5061716;28;20201;-58
2022/03/13 05:16:18;;;;;;;0.00;0.00;;;;;;;1.80;78.02;98541.47;5060259;28;20242;-58
2022/03/13 05:18:45;;;;;;;0.00;0.00;;;;;;;1.86;78.61;98543.66;5064142;28;20277;-58
2022/03/13 05:21:11;;;;;;;0.00;0.00;;;;;;;1.75;78.24;98542.56;5068683;28;20209;-58
2022/03/13 05:23:39;;;;;;;0.00;0.00;;;;;;;1.72;78.67;98537.63;5070945;28;20201;-57
2022/03/13 05:26:05;;;;;;;0.00;0.00;;;;;;;1.71;78.98;98543.69;5072187;28;20206;-57
2022/03/13 05:28:32;;;;;;;0.00;0.00;;;;;;;1.80;79.17;98544.03;5072562;28;20228;-57
2022/03/13 05:31:00;;;;;;;0.00;0.00;;;;;;;1.76;79.26;98551.13;5065509;28;20556;-57
2022/03/13 05:33:26;;;;;;;0.00;0.00;;;;;;;1.77;79.19;98553.59;5063089;28;20190;-58
2022/03/13 05:35:53;;;;;;;0.00;0.00;;;;;;;1.72;79.52;98555.63;5072196;28;20196;-57
2022/03/13 05:38:20;;;;;;;0.00;0.00;;;;;;;1.69;79.34;98557.59;5072464;28;20178;-57
2022/03/13 05:40:46;;;;;;;0.00;0.00;;;;;;;1.65;79.79;98561.28;5071984;28;20210;-57
2022/03/13 05:43:13;;;;;;;0.00;0.00;;;;;;;1.66;80.13;98568.88;5072318;28;20752;-57
2022/03/13 05:45:42;;;;;;;0.00;0.00;;;;;;;1.66;79.96;98573.22;5071926;28;20305;-57
2022/03/13 05:48:17;;;;;;;0.00;0.00;;;;;;;1.62;80.37;98573.41;5072349;28;20887;-57
2022/03/13 05:50:45;;;;;;;0.00;0.00;;;;;;;1.58;79.82;98577.09;5072284;28;20218;-57
2022/03/13 05:53:12;;;;;;;0.00;0.00;;;;;;;1.60;79.89;98589.84;5071818;28;20183;-57
2022/03/13 05:55:39;;;;;;;0.00;0.00;;;;;;;1.65;79.73;98580.09;5071750;28;20206;-57
2022/03/13 05:58:06;;;;;;;0.00;0.00;;;;;;;1.70;80.71;98584.97;5072385;28;20195;-57
2022/03/13 06:00:33;;;;;;;0.00;0.00;;;;;;;1.76;80.50;98592.31;5072227;28;20199;-57
2022/03/13 06:03:00;;;;;;;0.00;0.00;;;;;;;1.82;80.68;98584.22;5071871;28;20194;-57
2022/03/13 06:05:30;;;;;;;0.00;0.00;;;;;;;1.87;80.42;98574.44;5070395;28;20213;-57
2022/03/13 06:07:57;;;;;;;0.00;0.00;;;;;;;1.93;80.51;98580.94;5064909;28;20274;-57
2022/03/13 06:10:25;;;;;;;0.00;0.00;;;;;;;2.00;80.67;98583.97;5071591;28;20784;-57
2022/03/13 06:12:52;;;;;;;0.00;0.00;;;;;;;2.16;80.24;98581.22;5071807;28;20197;-57
2022/03/13 06:15:19;;;;;;;0.00;0.00;;;;;;;2.25;79.73;98584.97;5071516;28;20261;-57
2022/03/13 06:17:48;;;;;;;0.00;0.00;;;;;;;2.37;79.66;98579.00;5069462;28;20198;-57
2022/03/13 06:20:17;;;;;;;0.00;0.00;;;;;;;2.79;77.28;98582.28;5067907;28;20218;-57
2022/03/13 06:22:47;;;;;;;0.00;0.00;;;;;;;3.04;78.06;98580.63;5071213;28;20193;-57
2022/03/13 06:25:15;;;;;;;0.00;0.00;;;;;;;3.15;77.68;98567.00;5071417;28;20207;-58
2022/03/13 06:27:42;;;;;;;0.00;0.00;;;;;;;3.36;76.59;98576.78;5067769;28;20202;-57
2022/03/13 06:30:13;;;;;;;0.00;0.00;;;;;;;3.51;75.76;98604.09;5063357;28;20237;-57
2022/03/13 06:32:41;;;;;;;0.00;0.00;;;;;;;3.59;76.21;98593.22;5063596;28;20195;-57
2022/03/13 06:35:09;;;;;;;0.00;0.00;;;;;;;3.64;75.56;98588.56;5070735;28;20315;-57
2022/03/13 06:37:37;;;;;;;0.00;0.00;;;;;;;3.69;75.67;98589.06;5071484;28;20550;-57
2022/03/13 06:40:08;;;;;;;0.00;0.00;;;;;;;3.79;74.73;98601.34;5071295;28;20212;-57
2022/03/13 06:42:35;;;;;;;0.00;0.00;;;;;;;3.89;74.07;98611.81;5071028;28;20207;-57
2022/03/13 06:45:03;;;;;;;0.00;0.00;;;;;;;3.97;71.89;98607.78;5070709;28;20190;-57
2022/03/13 06:47:29;;;;;;;0.00;0.00;;;;;;;3.96;71.62;98608.72;5071262;28;20187;-57
2022/03/13 06:49:57;;;;;;;0.00;0.00;;;;;;;3.95;72.12;98607.06;5071320;28;20209;-57
2022/03/13 06:52:24;;;;;;;30.37;17.67;;;;;;;4.05;70.59;98609.00;5070992;28;20190;-56
2022/03/13 06:54:52;;;;;;;35.90;18.83;;;;;;;4.17;70.76;98602.13;5069193;28;20195;-56
2022/03/13 06:57:20;;;;;;;35.23;17.90;;;;;;;4.26;71.42;98607.44;5070094;28;20201;-56
2022/03/13 06:59:47;;;;;;;36.23;17.77;;;;;;;4.42;71.99;98601.16;5062318;28;20682;-56
2022/03/13 07:02:14;;;;;;;35.97;19.50;;;;;;;4.60;71.75;98592.97;5070274;28;20192;-55
2022/03/13 07:04:41;;;;;;;35.90;19.03;;;;;;;4.70;71.47;98591.38;5070345;28;20187;-57
2022/03/13 07:07:10;;;;;;;34.83;18.83;;;;;;;4.85;72.57;98590.22;5065211;28;20204;-56
2022/03/13 07:09:36;;;;;;;34.63;18.97;;;;;;;4.95;71.68;98580.00;5070373;28;20186;-56
2022/03/13 07:12:05;;;;;;;35.83;19.97;;;;;;;5.12;69.79;98577.91;5070353;28;20225;-56
2022/03/13 07:14:34;;;;;;;36.80;18.23;;;;;;;5.28;69.53;98572.38;5070287;28;20202;-57
2022/03/13 07:17:01;;;;;;;34.83;19.03;;;;;;;5.45;69.48;98573.66;5070568;28;20193;-56
2022/03/13 07:19:27;;;;;;;37.97;18.90;;;;;;;5.61;68.56;98570.69;5070573;28;20191;-56
2022/03/13 07:21:54;;;;;;;31.53;18.47;;;;;;;5.78;68.26;98566.78;5070339;28;20626;-56
2022/03/13 07:24:21;;;;;;;33.07;17.20;;;;;;;5.95;68.93;98565.44;5069960;28;20595;-56
2022/03/13 07:26:48;;;;;;;33.33;18.47;;;;;;;6.09;69.17;98571.31;5070320;28;20678;-56
2022/03/13 07:29:14;;;;;;;34.43;17.87;;;;;;;6.11;69.55;98574.59;5070496;28;20195;-56
2022/03/13 07:31:42;;;;;;;32.00;17.23;;;;;;;6.18;70.04;98563.59;5069660;28;20211;-56
2022/03/13 07:34:09;;;;;;;28.83;16.83;;;;;;;6.22;69.74;98559.00;5055519;28;20203;-56
2022/03/13 07:36:35;;;;;;;32.10;17.77;;;;;;;6.22;69.28;98551.22;5066794;28;20195;-56
2022/03/13 07:39:03;;;;;;;29.10;16.87;;;;;;;6.28;70.17;98553.31;5070169;28;20722;-57
2022/03/13 07:41:31;;;;;;;30.77;16.87;;;;;;;6.32;69.77;98554.72;5069933;28;20315;-57
2022/03/13 07:43:57;;;;;;;29.60;15.83;;;;;;;6.34;70.58;98550.22;5069399;28;20188;-56
2022/03/13 07:46:24;;;;;;;30.83;16.70;;;;;;;6.35;68.81;98543.25;5069434;28;20211;-56
2022/03/13 07:48:52;;;;;;;29.23;16.63;;;;;;;6.43;69.20;98546.03;5070187;28;20195;-56
2022/03/13 07:51:19;;;;;;;37.03;17.67;;;;;;;6.49;68.98;98542.09;5070110;28;20322;-56
2022/03/13 07:53:46;;;;;;;33.20;18.47;;;;;;;6.59;67.93;98547.38;5065469;28;20195;-57
2022/03/13 07:56:13;;;;;;;34.70;19.23;;;;;;;6.72;67.28;98535.03;5068877;28;20671;-56
2022/03/13 07:58:40;;;;;;;33.77;18.20;;;;;;;6.90;66.82;98543.03;5069645;28;20190;-57
2022/03/13 08:01:07;;;;;;;29.47;16.90;;;;;;;7.08;68.93;98535.44;5069607;28;20214;-57
2022/03/13 08:03:38;;;;;;;29.73;16.97;;;;;;;7.35;68.48;98533.25;5069514;28;20195;-57
2022/03/13 08:06:06;;;;;;;45.93;21.17;;;;;;;7.81;62.63;98544.78;5069218;28;20207;-57
2022/03/13 08:08:33;;;;;;;32.00;19.17;;;;;;;7.93;63.60;98552.47;5069569;28;20239;-56
2022/03/13 08:11:00;;;;;;;42.47;20.17;;;;;;;8.22;62.03;98554.25;5069923;28;20731;-57
2022/03/13 08:13:26;;;;;;;37.13;20.53;;;;;;;8.01;60.94;98560.41;5069381;28;20182;-56
2022/03/13 08:15:53;;;;;;;35.10;20.43;;;;;;;7.65;63.14;98557.47;5069080;28;20189;-57
2022/03/13 08:18:20;;;;;;;35.07;20.03;;;;;;;7.90;62.33;98565.72;5069529;28;20185;-55
2022/03/13 08:20:47;;;;;;;36.03;19.93;;;;;;;7.89;61.88;98574.50;5069114;28;20241;-56
2022/03/13 08:23:16;;;;;;;34.93;20.00;;;;;;;7.77;60.76;98569.41;5068963;28;20193;-57
2022/03/13 08:25:43;;;;;;;35.60;20.77;;;;;;;7.98;59.95;98561.50;5064734;28;20191;-57
2022/03/13 08:28:10;;;;;;;36.07;20.53;;;;;;;8.22;59.91;98551.66;5064106;28;20183;-56
2022/03/13 08:30:37;;;;;;;36.30;20.93;;;;;;;8.48;60.42;98561.50;5068930;28;20296;-56
2022/03/13 08:33:05;;;;;;;32.10;19.70;;;;;;;8.67;58.45;98558.06;5067059;28;20098;-56
2022/03/13 08:35:32;;;;;;;32.07;19.40;;;;;;;8.89;57.42;98563.91;5053982;28;20198;-56
2022/03/13 08:37:58;;;;;;;33.30;19.57;;;;;;;9.04;58.06;98575.47;5069222;28;20190;-56
2022/03/13 08:40:27;;;;;;;35.03;20.80;;;;;;;9.01;55.49;98576.59;5069375;28;20223;-56
2022/03/13 08:42:56;;;;;;;32.23;19.87;;;;;;;9.14;55.89;98571.06;5069165;28;20669;-57
2022/03/13 08:45:24;;;;;;;34.30;20.53;;;;;;;9.19;55.86;98575.88;5068582;28;20186;-57
2022/03/13 08:47:51;;;;;;;35.63;20.30;;;;;;;9.28;55.26;98580.22;5069185;28;20224;-57
2022/03/13 08:50:20;;;;;;;33.13;19.30;;;;;;;8.94;56.58;98580.72;5069188;28;20936;-57
2022/03/13 08:52:47;;;;;;;33.00;19.70;;;;;;;8.87;57.02;98582.25;5068806;28;20194;-57
2022/03/13 08:55:15;;;;;;;35.90;21.37;;;;;;;8.84;57.77;98580.78;5068964;28;20189;-57
2022/03/13 08:57:44;;;;;;;35.70;20.30;;;;;;;9.23;56.49;98590.25;5071532;28;20186;-57
2022/03/13 09:00:14;;;;;;;35.67;21.50;;;;;;;9.20;56.52;98581.88;5073238;28;20208;-57
2022/03/13 09:02:41;;;;;;;31.00;21.35;;;;;;;9.19;56.66;98578.47;5067343;28;20939;-58
2022/03/13 09:05:08;;;;;;;31.63;19.60;;;;;;;9.23;56.06;98582.44;5072461;28;20189;-58
2022/03/13 09:07:35;;;;;;;38.80;21.17;;;;;;;9.20;56.63;98579.28;5072683;28;20573;-58
2022/03/13 09:10:03;;;;;;;30.37;19.13;;;;;;;9.35;57.01;98577.03;5072913;28;20224;-58
2022/03/13 09:12:31;;;;;;;35.23;19.80;;;;;;;9.66;55.73;98571.50;5072811;28;20236;-58
2022/03/13 09:15:00;;;;;;;31.70;19.43;;;;;;;9.96;54.42;98572.16;5072389;28;20638;-57
2022/03/13 09:17:26;;;;;;;33.80;19.57;;;;;;;9.97;53.44;98579.84;5073012;28;20182;-58
2022/03/13 09:19:55;;;;;;;31.33;19.77;;;;;;;9.74;53.97;98580.25;5072755;28;20193;-58
2022/03/13 09:22:22;;;;;;;29.43;19.03;;;;;;;10.11;54.88;98580.25;5068520;28;20190;-58
2022/03/13 09:24:50;;;;;;;30.73;19.63;;;;;;;10.53;52.53;98579.69;5064954;28;20286;-58
2022/03/13 09:27:17;;;;;;;32.70;18.73;;;;;;;9.76;52.98;98580.09;5072479;28;20198;-58
2022/03/13 09:29:44;;;;;;;33.10;18.87;;;;;;;10.18;53.48;98578.69;5072334;28;20197;-58
2022/03/13 09:32:12;;;;;;;32.17;19.13;;;;;;;10.25;51.60;98582.34;5072287;28;20196;-58
2022/03/13 09:34:38;;;;;;;32.13;21.57;;;;;;;10.74;51.26;98581.13;5060377;28;20465;-58
2022/03/13 09:37:05;;;;;;;33.60;21.47;;;;;;;10.70;50.32;98575.38;5062304;28;20248;-58
2022/03/13 09:39:32;;;;;;;31.70;20.67;;;;;;;10.61;51.54;98576.28;5062574;28;20198;-58
2022/03/13 09:41:59;;;;;;;31.53;20.47;;;;;;;10.84;50.90;98581.03;5063623;28;20548;-58
2022/03/13 09:44:26;;;;;;;32.13;20.50;;;;;;;11.00;50.63;98570.66;5061725;28;20175;-58
2022/03/13 09:46:52;;;;;;;33.90;20.90;;;;;;;11.11;49.49;98581.84;5061453;28;20733;-58
2022/03/13 09:49:23;;;;;;;32.03;20.10;;;;;;;11.20;49.72;98567.84;5060055;28;20244;-56
2022/03/13 09:51:50;;;;;;;33.67;18.80;;;;;;;11.32;49.90;98561.38;5062539;28;20271;-56
2022/03/13 09:54:17;;;;;;;35.60;19.63;;;;;;;11.67;48.26;98559.50;5063144;28;20187;-57
2022/03/13 09:56:44;;;;;;;31.80;20.00;;;;;;;11.41;49.47;98550.94;5061671;28;20179;-57
2022/03/13 09:59:11;;;;;;;34.27;19.83;;;;;;;11.63;48.34;98550.38;5062302;28;20198;-57
2022/03/13 10:01:38;;;;;;;33.07;20.23;;;;;;;11.60;47.34;98540.22;5063407;28;20251;-57
2022/03/13 10:04:06;;;;;;;33.97;20.53;;;;;;;12.13;47.40;98533.97;5059696;28;20193;-58
2022/03/13 10:07:01;;;;;;;35.63;20.10;;;;;;;12.54;46.95;98539.16;5062064;28;20226;-57
2022/03/13 10:09:29;;;;;;;32.63;20.07;;;;;;;12.29;46.60;98530.50;5060528;28;20666;-58
2022/03/13 10:12:08;;;;;;;32.27;19.97;;;;;;;12.36;46.56;98526.25;5061741;28;20213;-58
2022/03/13 10:14:36;;;;;;;29.60;19.27;;;;;;;12.23;46.47;98535.41;5063212;28;20195;-57
2022/03/13 10:17:05;;;;;;;32.17;18.80;;;;;;;12.65;45.30;98538.00;5063884;28;20661;-58
2022/03/13 10:19:32;;;;;;;31.77;19.20;;;;;;;11.92;47.17;98530.78;5069835;28;20192;-57
2022/03/13 10:22:01;;;;;;;33.20;19.97;;;;;;;11.95;47.05;98535.69;5072639;28;20212;-58
2022/03/13 10:24:40;;;;;;;34.60;20.60;;;;;;;11.87;45.91;98527.84;5062086;28;20655;-57
2022/03/13 10:27:12;;;;;;;34.23;20.30;;;;;;;11.86;46.55;98538.47;5059919;28;20242;-57
2022/03/13 10:29:39;;;;;;;38.73;20.37;;;;;;;11.91;45.82;98537.00;5061426;28;20192;-57
2022/03/13 10:32:06;;;;;;;34.30;20.00;;;;;;;11.89;46.14;98538.94;5061353;28;20241;-57
2022/03/13 10:34:33;;;;;;;33.63;20.17;;;;;;;12.10;45.15;98541.16;5053093;28;20191;-58
2022/03/13 10:37:02;;;;;;;35.27;20.70;;;;;;;12.35;44.42;98543.75;5058250;28;20199;-58
2022/03/13 10:39:30;;;;;;;35.80;19.80;;;;;;;12.44;43.84;98538.50;5068350;28;20188;-57
2022/03/13 10:42:00;;;;;;;36.70;20.57;;;;;;;12.39;44.74;98536.41;5069925;28;20722;-57
2022/03/13 10:44:31;;;;;;;40.57;21.50;;;;;;;12.07;45.05;98528.41;5070938;28;20212;-58
2022/03/13 10:47:01;;;;;;;36.93;20.60;;;;;;;12.03;44.88;98534.94;5071772;28;20686;-58
2022/03/13 10:49:40;;;;;;;37.23;20.57;;;;;;;12.00;46.56;98534.41;5071495;28;20205;-58
2022/03/13 10:52:25;;;;;;;35.83;21.00;;;;;;;11.88;45.95;98526.06;5071503;28;20191;-58
2022/03/13 10:54:53;;;;;;;32.43;20.27;;;;;;;12.12;45.49;98522.66;5071486;28;20179;-58
2022/03/13 10:57:20;;;;;;;35.27;20.80;;;;;;;12.03;45.39;98518.41;5071485;28;20180;-58
2022/03/13 11:00:08;;;;;;;35.50;20.00;;;;;;;12.47;44.49;98520.69;5071282;28;20183;-58
2022/03/13 11:02:35;;;;;;;32.83;19.70;;;;;;;12.34;44.10;98513.31;5070982;28;20274;-58
2022/03/13 11:05:02;;;;;;;37.43;20.90;;;;;;;12.51;44.95;98510.69;5071394;28;20183;-58
2022/03/13 11:07:30;;;;;;;37.73;21.00;;;;;;;12.39;44.43;98513.63;5071226;28;20208;-58
2022/03/13 11:09:57;;;;;;;33.13;19.53;;;;;;;12.59;45.47;98508.06;5071175;28;20187;-58
2022/03/13 11:12:26;;;;;;;32.27;19.80;;;;;;;12.55;44.97;98496.28;5071031;28;20183;-58
2022/03/13 11:14:55;;;;;;;33.80;20.57;;;;;;;12.92;44.51;98505.34;5070421;28;20200;-58
2022/03/13 11:17:25;;;;;;;36.90;20.73;;;;;;;12.58;44.41;98497.75;5071459;28;20187;-58
2022/03/13 11:19:54;;;;;;;34.13;20.07;;;;;;;12.49;44.82;98492.53;5070431;28;20191;-58
2022/03/13 11:22:21;;;;;;;35.30;20.53;;;;;;;12.78;43.63;98488.53;5070529;28;20191;-58
2022/03/13 11:24:52;;;;;;;34.13;21.10;;;;;;;12.88;42.79;98483.09;5070428;28;20682;-58
2022/03/13 11:27:20;;;;;;;33.67;20.93;;;;;;;12.50;45.16;98483.69;5070860;28;20225;-58
2022/03/13 11:29:52;;;;;;;34.67;20.50;;;;;;;12.86;44.05;98477.22;5070737;28;20184;-57
2022/03/13 11:32:33;;;;;;;35.80;20.97;;;;;;;12.72;44.56;98486.56;5071042;28;20187;-57
2022/03/13 11:35:23;;;;;;;36.38;24.42;;;;;;;12.62;45.58;98476.31;5069247;28;20421;-57
2022/03/13 11:37:51;;;;;;;37.37;23.13;;;;;;;12.47;45.60;98470.94;5058684;28;20187;-57
2022/03/13 11:40:29;;;;;;;38.67;21.67;;;;;;;12.46;45.70;98464.06;5065613;28;20311;-57